createdAt,value
2023-04-01T00:00:18.202Z,975.66
2023-04-01T00:01:18.107Z,975.62
2023-04-01T00:02:18.068Z,975.62
2023-04-01T00:03:18.104Z,975.63
2023-04-01T00:04:17.959Z,975.64
2023-04-01T00:05:17.852Z,975.67
2023-04-01T00:06:17.786Z,975.62
2023-04-01T00:07:17.726Z,975.63
2023-04-01T00:08:18.591Z,975.67
2023-04-01T00:09:17.626Z,975.71
2023-04-01T00:10:17.547Z,975.62
2023-04-01T00:13:36.899Z,975.65
2023-04-01T00:14:37.867Z,975.68
2023-04-01T00:15:37.799Z,975.69
2023-04-01T00:16:37.835Z,975.69
2023-04-01T00:17:37.713Z,975.68
2023-04-01T00:18:37.596Z,975.65
2023-04-01T00:19:37.519Z,975.69
2023-04-01T00:20:37.487Z,975.66
2023-04-01T00:21:37.426Z,975.71
2023-04-01T00:22:37.354Z,975.71
2023-04-01T00:23:37.294Z,975.67
2023-04-01T00:24:44.491Z,975.68
2023-04-01T00:25:37.165Z,975.69
2023-04-01T00:26:37.084Z,975.66
2023-04-01T00:27:37.018Z,975.64
2023-04-01T00:28:36.955Z,975.63
2023-04-01T00:29:36.893Z,975.63
2023-04-01T00:30:36.861Z,975.62
2023-04-01T00:31:36.896Z,975.62
2023-04-01T00:32:36.751Z,975.64
2023-04-01T00:33:36.771Z,975.65
2023-04-01T00:34:36.618Z,975.64
2023-04-01T00:35:36.578Z,975.57
2023-04-01T00:36:36.799Z,975.67
2023-04-01T00:37:36.419Z,975.60
2023-04-01T00:38:36.374Z,975.60
2023-04-01T00:39:36.309Z,975.60
2023-04-01T00:40:36.239Z,975.58
2023-04-01T00:41:36.222Z,975.58
2023-04-01T00:42:38.537Z,975.60
2023-04-01T00:43:36.081Z,975.61
2023-04-01T00:44:36.020Z,975.60
2023-04-01T00:45:35.933Z,975.61
2023-04-01T00:46:35.912Z,975.60
2023-04-01T00:47:35.841Z,975.56
2023-04-01T00:48:35.767Z,975.57
2023-04-01T00:49:35.697Z,975.57
2023-04-01T00:50:35.614Z,975.55
2023-04-01T00:51:35.545Z,975.58
2023-04-01T00:52:35.493Z,975.57
2023-04-01T00:53:35.417Z,975.53
2023-04-01T00:54:35.436Z,975.64
2023-04-01T00:55:35.297Z,975.55
2023-04-01T00:56:35.245Z,975.57
2023-04-01T00:57:35.158Z,975.49
2023-04-01T00:58:35.149Z,975.56
2023-04-01T00:59:35.015Z,975.55
2023-04-01T01:00:34.987Z,975.56
2023-04-01T01:01:34.932Z,975.60
2023-04-01T01:02:34.946Z,975.58
2023-04-01T01:03:34.771Z,975.60
2023-04-01T01:04:34.728Z,975.57
2023-04-01T01:05:42.613Z,975.56
2023-04-01T01:06:34.622Z,975.61
2023-04-01T01:07:34.528Z,975.57
2023-04-01T01:08:34.522Z,975.55
2023-04-01T01:09:34.457Z,975.61
2023-04-01T01:10:34.331Z,975.62
2023-04-01T01:11:40.923Z,975.53
2023-04-01T01:14:13.612Z,975.56
2023-04-01T01:15:14.592Z,975.53
2023-04-01T01:16:14.577Z,975.55
2023-04-01T01:17:14.453Z,975.55
2023-04-01T01:18:21.633Z,975.53
2023-04-01T01:19:14.304Z,975.53
2023-04-01T01:20:25.393Z,975.54
2023-04-01T01:21:14.201Z,975.48
2023-04-01T01:22:14.117Z,975.54
2023-04-01T01:23:14.080Z,975.51
2023-04-01T01:24:14.010Z,975.53
2023-04-01T01:25:14.014Z,975.53
2023-04-01T01:26:13.893Z,975.52
2023-04-01T01:27:13.856Z,975.50
2023-04-01T01:28:13.782Z,975.49
2023-04-01T01:29:13.738Z,975.49
2023-04-01T01:30:13.630Z,975.48
2023-04-01T01:31:13.647Z,975.47
2023-04-01T01:32:13.519Z,975.45
2023-04-01T01:33:13.577Z,975.45
2023-04-01T01:34:13.418Z,975.41
2023-04-01T01:35:13.354Z,975.45
2023-04-01T01:38:31.728Z,975.46
2023-04-01T01:39:32.678Z,975.45
2023-04-01T01:40:32.594Z,975.43
2023-04-01T01:41:32.518Z,975.43
2023-04-01T01:42:32.462Z,975.41
2023-04-01T01:43:32.400Z,975.44
2023-04-01T01:44:32.353Z,975.41
2023-04-01T01:45:32.467Z,975.43
2023-04-01T01:46:32.347Z,975.43
2023-04-01T01:47:33.192Z,975.42
2023-04-01T01:48:32.103Z,975.41
2023-04-01T01:49:32.109Z,975.44
2023-04-01T01:50:31.925Z,975.39
2023-04-01T01:51:31.891Z,975.42
2023-04-01T01:52:31.827Z,975.45
2023-04-01T01:53:31.759Z,975.43
2023-04-01T01:54:31.732Z,975.39
2023-04-01T01:55:35.668Z,975.42
2023-04-01T01:56:31.559Z,975.42
2023-04-01T01:57:31.592Z,975.42
2023-04-01T01:58:31.448Z,975.41
2023-04-01T01:59:31.450Z,975.41
2023-04-01T02:00:31.386Z,975.41
2023-04-01T02:01:31.306Z,975.37
2023-04-01T02:02:31.300Z,975.41
2023-04-01T02:03:31.157Z,975.41
2023-04-01T02:04:31.172Z,975.42
2023-04-01T02:05:31.330Z,975.38
2023-04-01T02:06:30.954Z,975.41
2023-04-01T02:07:30.892Z,975.46
2023-04-01T02:08:30.832Z,975.44
2023-04-01T02:09:30.776Z,975.41
2023-04-01T02:10:30.700Z,975.43
2023-04-01T02:11:30.646Z,975.46
2023-04-01T02:12:30.587Z,975.41
2023-04-01T02:15:48.982Z,975.41
2023-04-01T02:16:49.873Z,975.38
2023-04-01T02:17:49.924Z,975.42
2023-04-01T02:18:49.778Z,975.45
2023-04-01T02:19:49.754Z,975.39
2023-04-01T02:20:49.647Z,975.34
2023-04-01T02:21:49.589Z,975.37
2023-04-01T02:22:49.527Z,975.40
2023-04-01T02:23:49.441Z,975.41
2023-04-01T02:24:49.360Z,975.40
2023-04-01T02:25:49.342Z,975.38
2023-04-01T02:26:49.320Z,975.36
2023-04-01T02:27:49.222Z,975.38
2023-04-01T02:28:49.132Z,975.35
2023-04-01T02:29:49.069Z,975.34
2023-04-01T02:30:48.997Z,975.37
2023-04-01T02:31:48.990Z,975.40
2023-04-01T02:35:07.296Z,975.42
2023-04-01T02:36:08.281Z,975.41
2023-04-01T02:37:08.171Z,975.41
2023-04-01T02:38:08.116Z,975.48
2023-04-01T02:39:08.077Z,975.46
2023-04-01T02:40:08.038Z,975.44
2023-04-01T02:41:07.947Z,975.42
2023-04-01T02:42:07.853Z,975.44
2023-04-01T02:43:07.822Z,975.46
2023-04-01T02:44:07.766Z,975.39
2023-04-01T02:45:07.699Z,975.42
2023-04-01T02:46:07.672Z,975.43
2023-04-01T02:47:07.574Z,975.46
2023-04-01T02:48:07.526Z,975.48
2023-04-01T02:49:07.487Z,975.49
2023-04-01T02:50:07.356Z,975.45
2023-04-01T02:51:07.316Z,975.45
2023-04-01T02:52:35.471Z,975.50
2023-04-01T02:53:07.198Z,975.51
2023-04-01T02:54:07.104Z,975.49
2023-04-01T02:55:07.083Z,975.58
2023-04-01T02:56:06.978Z,975.55
2023-04-01T02:57:06.946Z,975.52
2023-04-01T02:58:06.924Z,975.54
2023-04-01T02:59:06.834Z,975.52
2023-04-01T03:00:06.735Z,975.48
2023-04-01T03:01:06.747Z,975.52
2023-04-01T03:02:06.640Z,975.53
2023-04-01T03:03:06.595Z,975.55
2023-04-01T03:04:06.571Z,975.52
2023-04-01T03:05:06.455Z,975.50
2023-04-01T03:06:06.395Z,975.50
2023-04-01T03:07:06.319Z,975.50
2023-04-01T03:08:06.232Z,975.53
2023-04-01T03:09:06.226Z,975.55
2023-04-01T03:10:08.588Z,975.50
2023-04-01T03:11:06.073Z,975.49
2023-04-01T03:12:06.016Z,975.48
2023-04-01T03:13:05.930Z,975.58
2023-04-01T03:14:05.924Z,975.54
2023-04-01T03:15:11.207Z,975.52
2023-04-01T03:16:05.866Z,975.52
2023-04-01T03:17:05.726Z,975.54
2023-04-01T03:18:05.645Z,975.50
2023-04-01T03:19:05.572Z,975.50
2023-04-01T03:20:05.533Z,975.50
2023-04-01T03:21:05.485Z,975.49
2023-04-01T03:22:05.406Z,975.48
2023-04-01T03:23:05.325Z,975.50
2023-04-01T03:24:05.238Z,975.49
2023-04-01T03:25:05.198Z,975.52
2023-04-01T03:26:05.107Z,975.47
2023-04-01T03:27:05.053Z,975.48
2023-04-01T03:32:42.964Z,975.52
2023-04-01T03:33:43.871Z,975.52
2023-04-01T03:34:43.765Z,975.50
2023-04-01T03:35:43.730Z,975.48
2023-04-01T03:36:43.664Z,975.53
2023-04-01T03:37:43.595Z,975.51
2023-04-01T03:38:43.523Z,975.49
2023-04-01T03:39:44.614Z,975.51
2023-04-01T03:40:43.434Z,975.51
2023-04-01T03:41:43.332Z,975.53
2023-04-01T03:42:43.302Z,975.48
2023-04-01T03:43:43.235Z,975.52
2023-04-01T03:44:43.139Z,975.51
2023-04-01T03:45:43.047Z,975.53
2023-04-01T03:46:43.172Z,975.51
2023-04-01T03:47:43.058Z,975.57
2023-04-01T03:48:42.886Z,975.53
2023-04-01T03:49:42.842Z,975.55
2023-04-01T03:50:42.759Z,975.57
2023-04-01T03:51:42.700Z,975.51
2023-04-01T03:52:42.638Z,975.53
2023-04-01T03:53:42.606Z,975.56
2023-04-01T03:54:42.509Z,975.55
2023-04-01T03:55:42.469Z,975.53
2023-04-01T03:56:42.399Z,975.53
2023-04-01T03:57:42.367Z,975.56
2023-04-01T03:58:42.266Z,975.53
2023-04-01T03:59:42.219Z,975.52
2023-04-01T04:00:42.113Z,975.59
2023-04-01T04:01:42.140Z,975.51
2023-04-01T04:02:42.084Z,975.56
2023-04-01T04:03:42.011Z,975.53
2023-04-01T04:04:41.993Z,975.50
2023-04-01T04:05:41.823Z,975.51
2023-04-01T04:06:41.770Z,975.55
2023-04-01T04:10:00.174Z,975.52
2023-04-01T04:11:01.069Z,975.50
2023-04-01T04:12:01.050Z,975.55
2023-04-01T04:13:00.981Z,975.52
2023-04-01T04:14:00.937Z,975.59
2023-04-01T04:15:00.876Z,975.51
2023-04-01T04:16:00.892Z,975.55
2023-04-01T04:17:00.750Z,975.58
2023-04-01T04:18:00.731Z,975.56
2023-04-01T04:19:00.593Z,975.58
2023-04-01T04:20:00.505Z,975.60
2023-04-01T04:21:00.930Z,975.60
2023-04-01T04:22:00.402Z,975.63
2023-04-01T04:23:00.322Z,975.60
2023-04-01T04:24:00.284Z,975.53
2023-04-01T04:25:00.224Z,975.59
2023-04-01T04:26:00.208Z,975.60
2023-04-01T04:27:07.295Z,975.63
2023-04-01T04:28:00.038Z,975.59
2023-04-01T04:28:59.985Z,975.60
2023-04-01T04:29:59.915Z,975.60
2023-04-01T04:30:59.820Z,975.63
2023-04-01T04:31:59.891Z,975.58
2023-04-01T04:32:59.841Z,975.64
2023-04-01T04:33:59.658Z,975.60
2023-04-01T04:34:59.590Z,975.63
2023-04-01T04:35:59.569Z,975.57
2023-04-01T04:36:59.489Z,975.58
2023-04-01T04:37:59.377Z,975.62
2023-04-01T04:38:59.352Z,975.62
2023-04-01T04:39:59.208Z,975.65
2023-04-01T04:40:59.157Z,975.66
2023-04-01T04:41:59.102Z,975.63
2023-04-01T04:42:59.040Z,975.61
2023-04-01T04:43:58.946Z,975.65
2023-04-01T04:44:58.947Z,975.65
2023-04-01T04:45:58.867Z,975.62
2023-04-01T04:46:58.852Z,975.69
2023-04-01T04:47:58.737Z,975.62
2023-04-01T04:48:58.629Z,975.67
2023-04-01T04:49:58.626Z,975.63
2023-04-01T04:50:58.516Z,975.60
2023-04-01T04:51:58.443Z,975.61
2023-04-01T04:52:58.415Z,975.60
2023-04-01T04:53:58.343Z,975.66
2023-04-01T04:54:58.306Z,975.66
2023-04-01T04:55:58.227Z,975.63
2023-04-01T04:56:58.220Z,975.64
2023-04-01T04:57:58.122Z,975.60
2023-04-01T04:58:58.071Z,975.65
2023-04-01T04:59:57.978Z,975.68
2023-04-01T05:00:57.920Z,975.68
2023-04-01T05:01:57.847Z,975.68
2023-04-01T05:02:57.959Z,975.69
2023-04-01T05:03:57.720Z,975.68
2023-04-01T05:04:57.686Z,975.67
2023-04-01T05:05:57.600Z,975.67
2023-04-01T05:06:57.560Z,975.70
2023-04-01T05:07:57.442Z,975.68
2023-04-01T05:08:57.429Z,975.77
2023-04-01T05:09:57.318Z,975.74
2023-04-01T05:10:57.252Z,975.68
2023-04-01T05:11:57.245Z,975.71
2023-04-01T05:12:57.158Z,975.69
2023-04-01T05:13:57.093Z,975.68
2023-04-01T05:14:57.060Z,975.73
2023-04-01T05:15:56.998Z,975.72
2023-04-01T05:16:56.895Z,975.71
2023-04-01T05:17:56.852Z,975.71
2023-04-01T05:18:56.805Z,975.66
2023-04-01T05:19:56.711Z,975.73
2023-04-01T05:20:56.699Z,975.69
2023-04-01T05:21:56.617Z,975.73
2023-04-01T05:22:56.534Z,975.69
2023-04-01T05:23:56.465Z,975.65
2023-04-01T05:24:56.405Z,975.66
2023-04-01T05:25:56.377Z,975.65
2023-04-01T05:26:57.048Z,975.72
2023-04-01T05:27:56.197Z,975.71
2023-04-01T05:28:56.153Z,975.72
2023-04-01T05:29:56.117Z,975.64
2023-04-01T05:30:56.089Z,975.66
2023-04-01T05:31:55.991Z,975.67
2023-04-01T05:32:55.994Z,975.66
2023-04-01T05:33:55.847Z,975.70
2023-04-01T05:34:55.755Z,975.73
2023-04-01T05:35:55.764Z,975.72
2023-04-01T05:36:55.668Z,975.68
2023-04-01T05:37:55.627Z,975.75
2023-04-01T05:38:59.577Z,975.72
2023-04-01T05:39:55.476Z,975.76
2023-04-01T05:40:55.401Z,975.71
2023-04-01T05:41:56.113Z,975.68
2023-04-01T05:42:55.331Z,975.68
2023-04-01T05:43:55.202Z,975.73
2023-04-01T05:44:55.476Z,975.70
2023-04-01T05:45:55.086Z,975.73
2023-04-01T05:46:55.059Z,975.78
2023-04-01T05:47:55.099Z,975.76
2023-04-01T05:48:54.929Z,975.79
2023-04-01T05:49:54.839Z,975.79
2023-04-01T05:50:54.819Z,975.79
2023-04-01T05:51:54.726Z,975.78
2023-04-01T05:52:54.656Z,975.77
2023-04-01T05:53:54.590Z,975.77
2023-04-01T05:54:54.540Z,975.77
2023-04-01T05:55:54.493Z,975.78
2023-04-01T05:56:56.859Z,975.77
2023-04-01T05:57:54.341Z,975.80
2023-04-01T05:58:54.319Z,975.77
2023-04-01T05:59:54.216Z,975.82
2023-04-01T06:01:08.043Z,975.83
2023-04-01T06:01:54.134Z,975.83
2023-04-01T06:02:54.081Z,975.88
2023-04-01T06:03:54.292Z,975.82
2023-04-01T06:04:54.774Z,975.81
2023-04-01T06:05:53.807Z,975.82
2023-04-01T06:06:53.788Z,975.82
2023-04-01T06:07:53.713Z,975.85
2023-04-01T06:08:53.683Z,975.89
2023-04-01T06:09:53.584Z,975.88
2023-04-01T06:10:53.555Z,975.85
2023-04-01T06:11:53.438Z,975.84
2023-04-01T06:12:53.397Z,975.88
2023-04-01T06:13:53.340Z,975.87
2023-04-01T06:14:53.287Z,975.87
2023-04-01T06:15:53.264Z,975.85
2023-04-01T06:16:53.148Z,975.86
2023-04-01T06:17:53.118Z,975.88
2023-04-01T06:18:53.044Z,975.86
2023-04-01T06:19:52.983Z,975.88
2023-04-01T06:20:52.893Z,975.90
2023-04-01T06:21:52.870Z,975.82
2023-04-01T06:22:52.818Z,975.88
2023-04-01T06:23:52.745Z,975.88
2023-04-01T06:24:52.695Z,975.84
2023-04-01T06:25:52.623Z,975.87
2023-04-01T06:26:52.556Z,975.88
2023-04-01T06:27:52.456Z,975.89
2023-04-01T06:28:52.373Z,975.88
2023-04-01T06:29:52.330Z,975.85
2023-04-01T06:30:52.304Z,975.86
2023-04-01T06:31:52.179Z,975.89
2023-04-01T06:32:52.182Z,975.96
2023-04-01T06:33:52.077Z,975.94
2023-04-01T06:34:52.024Z,975.98
2023-04-01T06:35:51.988Z,975.90
2023-04-01T06:36:51.888Z,975.93
2023-04-01T06:37:51.840Z,975.93
2023-04-01T06:38:51.825Z,975.94
2023-04-01T06:39:51.716Z,976.00
2023-04-01T06:40:51.678Z,975.94
2023-04-01T06:41:51.559Z,975.92
2023-04-01T06:42:51.520Z,975.99
2023-04-01T06:43:51.461Z,975.97
2023-04-01T06:44:51.421Z,975.94
2023-04-01T06:45:51.340Z,975.99
2023-04-01T06:46:51.250Z,975.96
2023-04-01T06:47:51.287Z,975.97
2023-04-01T06:48:51.117Z,975.93
2023-04-01T06:49:51.058Z,976.02
2023-04-01T06:50:51.061Z,975.99
2023-04-01T06:51:50.957Z,975.95
2023-04-01T06:52:50.934Z,976.02
2023-04-01T06:53:50.837Z,976.01
2023-04-01T06:54:50.776Z,976.01
2023-04-01T06:55:50.679Z,976.02
2023-04-01T06:56:50.680Z,976.02
2023-04-01T06:57:50.605Z,975.98
2023-04-01T06:58:50.544Z,976.01
2023-04-01T06:59:50.488Z,975.98
2023-04-01T07:00:50.385Z,976.00
2023-04-01T07:01:50.393Z,976.01
2023-04-01T07:02:50.298Z,976.01
2023-04-01T07:03:50.208Z,976.04
2023-04-01T07:04:50.163Z,976.02
2023-04-01T07:05:50.105Z,975.99
2023-04-01T07:06:50.040Z,976.05
2023-04-01T07:07:49.923Z,976.06
2023-04-01T07:11:08.256Z,976.06
2023-04-01T07:12:09.171Z,976.03
2023-04-01T07:13:09.084Z,976.05
2023-04-01T07:14:09.071Z,976.05
2023-04-01T07:15:08.953Z,975.99
2023-04-01T07:16:08.947Z,976.00
2023-04-01T07:17:08.893Z,976.03
2023-04-01T07:18:08.814Z,976.03
2023-04-01T07:19:09.621Z,976.05
2023-04-01T07:20:08.666Z,976.04
2023-04-01T07:21:08.658Z,976.02
2023-04-01T07:22:09.278Z,976.06
2023-04-01T07:23:08.483Z,976.04
2023-04-01T07:24:08.396Z,976.06
2023-04-01T07:25:08.375Z,976.03
2023-04-01T07:26:08.263Z,976.07
2023-04-01T07:27:08.206Z,976.07
2023-04-01T07:28:09.380Z,976.11
2023-04-01T07:29:08.115Z,976.09
2023-04-01T07:30:08.063Z,976.12
2023-04-01T07:31:08.035Z,976.08
2023-04-01T07:32:07.974Z,976.15
2023-04-01T07:33:07.867Z,976.16
2023-04-01T07:34:07.863Z,976.21
2023-04-01T07:35:07.705Z,976.18
2023-04-01T07:36:07.666Z,976.23
2023-04-01T07:37:07.630Z,976.18
2023-04-01T07:38:07.607Z,976.24
2023-04-01T07:39:07.478Z,976.30
2023-04-01T07:40:07.434Z,976.25
2023-04-01T07:41:07.322Z,976.23
2023-04-01T07:42:07.264Z,976.23
2023-04-01T07:43:07.223Z,976.26
2023-04-01T07:44:07.195Z,976.25
2023-04-01T07:45:07.114Z,976.25
2023-04-01T07:48:25.446Z,976.30
2023-04-01T07:49:26.368Z,976.30
2023-04-01T07:50:26.306Z,976.26
2023-04-01T07:51:26.190Z,976.34
2023-04-01T07:52:26.177Z,976.34
2023-04-01T07:53:26.075Z,976.41
2023-04-01T07:54:26.062Z,976.39
2023-04-01T07:55:25.956Z,976.38
2023-04-01T07:56:25.930Z,976.38
2023-04-01T07:57:25.858Z,976.40
2023-04-01T07:58:25.821Z,976.38
2023-04-01T07:59:25.739Z,976.38
2023-04-01T08:00:25.669Z,976.42
2023-04-01T08:01:25.565Z,976.44
2023-04-01T08:02:25.591Z,976.48
2023-04-01T08:03:25.648Z,976.43
2023-04-01T08:04:25.441Z,976.45
2023-04-01T08:05:25.411Z,976.45
2023-04-01T08:06:25.340Z,976.47
2023-04-01T08:07:25.191Z,976.51
2023-04-01T08:08:25.214Z,976.57
2023-04-01T08:09:25.094Z,976.51
2023-04-01T08:10:25.055Z,976.48
2023-04-01T08:11:25.036Z,976.57
2023-04-01T08:12:24.924Z,976.60
2023-04-01T08:13:24.843Z,976.50
2023-04-01T08:14:24.812Z,976.54
2023-04-01T08:15:24.713Z,976.59
2023-04-01T08:16:24.770Z,976.61
2023-04-01T08:17:24.633Z,976.55
2023-04-01T08:18:24.519Z,976.60
2023-04-01T08:19:24.457Z,976.60
2023-04-01T08:20:24.397Z,976.58
2023-04-01T08:21:24.311Z,976.66
2023-04-01T08:22:24.265Z,976.66
2023-04-01T08:23:45.246Z,976.59
2023-04-01T08:24:24.811Z,976.67
2023-04-01T08:25:24.081Z,976.62
2023-04-01T08:26:24.041Z,976.63
2023-04-01T08:27:24.014Z,976.65
2023-04-01T08:28:23.893Z,976.66
2023-04-01T08:29:23.854Z,976.70
2023-04-01T08:30:23.748Z,976.64
2023-04-01T08:31:23.787Z,976.64
2023-04-01T08:32:23.628Z,976.68
2023-04-01T08:33:23.604Z,976.66
2023-04-01T08:34:23.503Z,976.73
2023-04-01T08:35:23.646Z,976.70
2023-04-01T08:36:23.456Z,976.68
2023-04-01T08:37:23.375Z,976.70
2023-04-01T08:38:23.260Z,976.75
2023-04-01T08:39:23.192Z,976.69
2023-04-01T08:40:23.213Z,976.69
2023-04-01T08:41:23.064Z,976.67
2023-04-01T08:42:22.996Z,976.74
2023-04-01T08:43:22.986Z,976.68
2023-04-01T08:44:22.962Z,976.69
2023-04-01T08:45:22.821Z,976.71
2023-04-01T08:46:22.799Z,976.71
2023-04-01T08:49:41.093Z,976.71
2023-04-01T08:50:42.003Z,976.71
2023-04-01T08:51:41.957Z,976.71
2023-04-01T08:52:41.867Z,976.68
2023-04-01T08:53:41.810Z,976.70
2023-04-01T08:54:41.768Z,976.71
2023-04-01T08:55:41.688Z,976.76
2023-04-01T08:56:41.613Z,976.72
2023-04-01T08:57:41.592Z,976.72
2023-04-01T08:58:41.489Z,976.72
2023-04-01T08:59:41.429Z,976.77
2023-04-01T09:00:43.788Z,976.69
2023-04-01T09:01:41.331Z,976.73
2023-04-01T09:02:41.374Z,976.73
2023-04-01T09:03:41.323Z,976.69
2023-04-01T09:04:41.149Z,976.73
2023-04-01T09:05:41.066Z,976.71
2023-04-01T09:06:41.031Z,976.73
2023-04-01T09:07:40.922Z,976.75
2023-04-01T09:08:40.861Z,976.81
2023-04-01T09:09:40.789Z,976.74
2023-04-01T09:10:40.765Z,976.77
2023-04-01T09:11:40.667Z,976.74
2023-04-01T09:12:40.597Z,976.75
2023-04-01T09:13:40.523Z,976.80
2023-04-01T09:14:40.489Z,976.83
2023-04-01T09:15:40.436Z,976.77
2023-04-01T09:16:40.410Z,976.79
2023-04-01T09:17:40.335Z,976.80
2023-04-01T09:18:40.286Z,976.78
2023-04-01T09:19:40.178Z,976.81
2023-04-01T09:20:40.138Z,976.78
2023-04-01T09:21:40.091Z,976.77
2023-04-01T09:22:39.994Z,976.79
2023-04-01T09:23:39.934Z,976.80
2023-04-01T09:24:39.855Z,976.80
2023-04-01T09:25:39.804Z,976.81
2023-04-01T09:26:39.721Z,976.80
2023-04-01T09:27:39.704Z,976.86
2023-04-01T09:28:39.591Z,976.82
2023-04-01T09:29:39.553Z,976.83
2023-04-01T09:30:39.548Z,976.85
2023-04-01T09:31:39.506Z,976.81
2023-04-01T09:32:39.391Z,976.88
2023-04-01T09:33:39.309Z,976.86
2023-04-01T09:34:39.272Z,976.82
2023-04-01T09:35:39.223Z,976.90
2023-04-01T09:36:41.597Z,976.94
2023-04-01T09:37:39.114Z,976.90
2023-04-01T09:38:38.989Z,976.90
2023-04-01T09:39:38.920Z,976.92
2023-04-01T09:40:38.905Z,976.92
2023-04-01T09:41:38.809Z,976.91
2023-04-01T09:42:38.747Z,976.93
2023-04-01T09:43:38.745Z,976.93
2023-04-01T09:44:38.682Z,976.97
2023-04-01T09:45:38.556Z,976.92
2023-04-01T09:46:38.534Z,976.93
2023-04-01T09:47:39.223Z,976.90
2023-04-01T09:48:38.444Z,976.94
2023-04-01T09:49:38.293Z,976.95
2023-04-01T09:50:38.218Z,976.99
2023-04-01T09:51:38.185Z,976.95
2023-04-01T09:52:38.145Z,976.92
2023-04-01T09:53:38.025Z,976.92
2023-04-01T09:56:19.287Z,977.00
2023-04-01T09:57:20.284Z,976.96
2023-04-01T09:58:20.176Z,976.92
2023-04-01T09:59:20.099Z,976.97
2023-04-01T10:00:20.067Z,976.98
2023-04-01T10:01:20.052Z,976.98
2023-04-01T10:02:19.895Z,977.03
2023-04-01T10:03:19.891Z,976.98
2023-04-01T10:04:19.827Z,977.04
2023-04-01T10:05:19.832Z,977.03
2023-04-01T10:06:19.654Z,977.04
2023-04-01T10:07:19.666Z,977.08
2023-04-01T10:08:19.562Z,977.07
2023-04-01T10:09:19.513Z,977.11
2023-04-01T10:10:19.417Z,977.08
2023-04-01T10:11:19.330Z,977.15
2023-04-01T10:12:19.287Z,977.13
2023-04-01T10:13:21.701Z,977.10
2023-04-01T10:14:19.197Z,977.12
2023-04-01T10:15:19.146Z,977.09
2023-04-01T10:16:19.031Z,977.10
2023-04-01T10:17:19.048Z,977.15
2023-04-01T10:18:18.955Z,977.08
2023-04-01T10:19:18.841Z,977.11
2023-04-01T10:20:18.804Z,977.07
2023-04-01T10:21:18.734Z,977.11
2023-04-01T10:22:18.698Z,977.07
2023-04-01T10:23:18.576Z,977.07
2023-04-01T10:24:18.522Z,977.12
2023-04-01T10:25:18.512Z,977.12
2023-04-01T10:26:18.444Z,977.12
2023-04-01T10:27:18.351Z,977.12
2023-04-01T10:28:18.314Z,977.11
2023-04-01T10:29:18.223Z,977.11
2023-04-01T10:30:18.186Z,977.12
2023-04-01T10:31:25.330Z,977.10
2023-04-01T10:32:18.025Z,977.10
2023-04-01T10:33:17.967Z,977.16
2023-04-01T10:34:18.186Z,977.15
2023-04-01T10:35:17.821Z,977.18
2023-04-01T10:36:17.830Z,977.13
2023-04-01T10:37:17.775Z,977.17
2023-04-01T10:38:17.640Z,977.21
2023-04-01T10:39:17.589Z,977.15
2023-04-01T10:40:17.532Z,977.17
2023-04-01T10:41:17.437Z,977.14
2023-04-01T10:42:17.398Z,977.16
2023-04-01T10:43:17.381Z,977.18
2023-04-01T10:44:17.288Z,977.13
2023-04-01T10:45:17.243Z,977.11
2023-04-01T10:46:17.255Z,977.16
2023-04-01T10:47:17.081Z,977.12
2023-04-01T10:48:17.073Z,977.18
2023-04-01T10:49:16.996Z,977.10
2023-04-01T10:50:16.894Z,977.08
2023-04-01T10:51:16.860Z,977.10
2023-04-01T10:52:16.734Z,977.07
2023-04-01T10:53:16.705Z,977.10
2023-04-01T10:54:16.620Z,977.06
2023-04-01T10:55:16.594Z,977.07
2023-04-01T10:56:16.538Z,977.08
2023-04-01T10:57:16.496Z,977.08
2023-04-01T10:58:16.379Z,977.03
2023-04-01T10:59:16.370Z,977.04
2023-04-01T11:00:16.237Z,977.00
2023-04-01T11:01:16.263Z,977.03
2023-04-01T11:02:16.323Z,977.09
2023-04-01T11:03:16.151Z,977.08
2023-04-01T11:04:15.990Z,977.06
2023-04-01T11:05:16.532Z,977.10
2023-04-01T11:06:15.855Z,977.06
2023-04-01T11:07:15.837Z,977.06
2023-04-01T11:08:15.740Z,977.08
2023-04-01T11:09:15.694Z,977.05
2023-04-01T11:10:15.606Z,977.04
2023-04-01T11:11:15.660Z,977.01
2023-04-01T11:12:15.509Z,977.00
2023-04-01T11:13:15.461Z,977.02
2023-04-01T11:14:15.386Z,977.05
2023-04-01T11:15:15.318Z,977.01
2023-04-01T11:16:16.183Z,977.05
2023-04-01T11:17:15.194Z,977.04
2023-04-01T11:18:15.120Z,977.04
2023-04-01T11:19:15.107Z,977.04
2023-04-01T11:20:15.010Z,977.08
2023-04-01T11:21:14.950Z,977.07
2023-04-01T11:22:14.863Z,977.12
2023-04-01T11:23:14.795Z,977.19
2023-04-01T11:24:14.749Z,977.15
2023-04-01T11:27:33.016Z,977.20
2023-04-01T11:28:33.969Z,977.18
2023-04-01T11:29:33.928Z,977.07
2023-04-01T11:30:33.820Z,977.13
2023-04-01T11:31:33.816Z,977.13
2023-04-01T11:32:33.874Z,977.12
2023-04-01T11:33:33.654Z,977.13
2023-04-01T11:34:33.628Z,977.16
2023-04-01T11:35:33.730Z,977.16
2023-04-01T11:36:33.493Z,977.19
2023-04-01T11:37:33.376Z,977.14
2023-04-01T11:38:33.365Z,977.14
2023-04-01T11:39:33.277Z,977.15
2023-04-01T11:40:33.205Z,977.18
2023-04-01T11:41:33.156Z,977.16
2023-04-01T11:42:33.121Z,977.13
2023-04-01T11:43:34.052Z,977.17
2023-04-01T11:45:46.166Z,977.21
2023-04-01T11:46:43.235Z,977.27
2023-04-01T11:47:43.062Z,977.23
2023-04-01T11:48:44.942Z,977.28
2023-04-01T11:49:42.946Z,977.28
2023-04-01T11:50:42.860Z,977.25
2023-04-01T11:52:04.058Z,977.28
2023-04-01T11:52:42.698Z,977.32
2023-04-01T11:53:42.658Z,977.31
2023-04-01T11:54:42.619Z,977.34
2023-04-01T11:55:42.558Z,977.34
2023-04-01T11:56:42.468Z,977.36
2023-04-01T11:57:42.470Z,977.34
2023-04-01T11:58:42.352Z,977.37
2023-04-01T11:59:42.270Z,977.37
2023-04-01T12:00:42.199Z,977.42
2023-04-01T12:01:42.140Z,977.40
2023-04-01T12:02:42.184Z,977.42
2023-04-01T12:03:42.252Z,977.41
2023-04-01T12:04:41.995Z,977.40
2023-04-01T12:05:41.949Z,977.44
2023-04-01T12:06:41.879Z,977.44
2023-04-01T12:07:41.811Z,977.45
2023-04-01T12:08:41.708Z,977.45
2023-04-01T12:09:41.746Z,977.46
2023-04-01T12:10:41.594Z,977.44
2023-04-01T12:11:41.512Z,977.48
2023-04-01T12:12:50.685Z,977.51
2023-04-01T12:13:41.412Z,977.46
2023-04-01T12:14:41.347Z,977.50
2023-04-01T12:15:41.277Z,977.47
2023-04-01T12:16:41.280Z,977.49
2023-04-01T12:17:41.184Z,977.55
2023-04-01T12:18:41.151Z,977.53
2023-04-01T12:19:41.014Z,977.50
2023-04-01T12:20:40.946Z,977.53
2023-04-01T12:21:40.923Z,977.57
2023-04-01T12:22:40.884Z,977.48
2023-04-01T12:23:40.760Z,977.56
2023-04-01T12:24:40.736Z,977.59
2023-04-01T12:25:40.690Z,977.56
2023-04-01T12:26:40.678Z,977.55
2023-04-01T12:27:40.583Z,977.57
2023-04-01T12:28:40.490Z,977.60
2023-04-01T12:29:40.440Z,977.63
2023-04-01T12:30:40.414Z,977.63
2023-04-01T12:31:40.289Z,977.64
2023-04-01T12:32:40.235Z,977.68
2023-04-01T12:33:40.214Z,977.67
2023-04-01T12:34:40.098Z,977.71
2023-04-01T12:35:40.074Z,977.69
2023-04-01T12:36:39.978Z,977.72
2023-04-01T12:37:39.945Z,977.67
2023-04-01T12:38:39.897Z,977.70
2023-04-01T12:39:39.846Z,977.70
2023-04-01T12:40:39.719Z,977.66
2023-04-01T12:41:39.661Z,977.67
2023-04-01T12:42:39.658Z,977.71
2023-04-01T12:43:39.552Z,977.72
2023-04-01T12:44:39.450Z,977.68
2023-04-01T12:45:39.423Z,977.72
2023-04-01T12:46:39.392Z,977.74
2023-04-01T12:47:39.336Z,977.70
2023-04-01T12:48:39.247Z,977.73
2023-04-01T12:49:39.177Z,977.72
2023-04-01T12:50:39.119Z,977.74
2023-04-01T12:51:39.050Z,977.81
2023-04-01T12:52:38.992Z,977.79
2023-04-01T12:53:38.887Z,977.78
2023-04-01T12:54:38.891Z,977.80
2023-04-01T12:55:38.803Z,977.80
2023-04-01T12:56:38.708Z,977.79
2023-04-01T12:57:38.670Z,977.82